Time;durP1;ratioP1;P1;durP2;ratioP2;P2;SDS_P1;SDS_P2;PMS_P1;PMS_P2;Temp;Humidity;BMP_temperature;BMP_pressure;BME280_temperature;BME280_humidity;BME280_pressure;Samples;Min_cycle;Max_cycle;Signal;HPM_P1;HPM_P2
2021/06/26 00:04:49;;;;;;;18.90;13.05;;;;;;;14.71;84.52;100731.78;20656696;28;20559;-70
2021/06/26 00:14:52;;;;;;;18.40;12.98;;;;;;;14.65;84.33;100731.94;20666726;28;20050;-70
2021/06/26 00:24:54;;;;;;;18.75;13.05;;;;;;;14.53;83.92;100726.13;20670063;28;20057;-70
2021/06/26 00:34:55;;;;;;;19.85;13.00;;;;;;;14.35;85.03;100721.28;20670851;28;20563;-70
2021/06/26 00:44:57;;;;;;;22.67;13.40;;;;;;;14.16;86.06;100727.94;20670720;28;20081;-69
2021/06/26 00:54:59;;;;;;;17.60;13.40;;;;;;;13.99;84.69;100721.34;20670696;28;20050;-69
2021/06/26 01:05:02;;;;;;;19.52;13.57;;;;;;;13.80;85.95;100714.78;20668388;28;20046;-70
2021/06/26 01:15:06;;;;;;;20.70;14.18;;;;;;;13.88;85.61;100718.09;20668474;28;20555;-69
2021/06/26 01:25:13;;;;;;;21.23;13.95;;;;;;;13.90;86.46;100718.06;20669491;28;20047;-69
2021/06/26 01:35:15;;;;;;;17.77;12.43;;;;;;;13.83;85.43;100714.69;20667526;28;20104;-69
2021/06/26 01:45:18;;;;;;;18.58;12.93;;;;;;;13.73;85.69;100710.56;20666847;28;20046;-70
2021/06/26 01:55:22;;;;;;;19.85;13.02;;;;;;;13.88;86.76;100707.56;20664946;28;20057;-69
2021/06/26 02:05:24;;;;;;;27.50;18.07;;;;;;;13.89;87.09;100709.28;20664310;28;20464;-69
2021/06/26 02:15:26;;;;;;;20.80;14.55;;;;;;;13.77;87.13;100694.66;20663694;28;20077;-69
2021/06/26 02:25:28;;;;;;;17.75;13.13;;;;;;;13.50;85.77;100701.44;20662942;28;20057;-69
2021/06/26 02:35:29;;;;;;;20.00;13.45;;;;;;;13.47;86.40;100698.88;20660598;28;20097;-70
2021/06/26 02:45:31;;;;;;;18.10;12.75;;;;;;;13.14;86.14;100694.34;20661763;28;20512;-70
2021/06/26 02:55:33;;;;;;;20.63;12.70;;;;;;;13.13;86.91;100692.59;20660306;28;20054;-70
2021/06/26 03:05:35;;;;;;;21.20;13.00;;;;;;;13.07;86.74;100707.59;20659831;28;20042;-70
2021/06/26 03:15:37;;;;;;;16.70;11.77;;;;;;;12.97;85.92;100695.56;20659688;28;20053;-70
2021/06/26 03:25:38;;;;;;;20.15;14.52;;;;;;;12.86;87.07;100697.53;20658258;28;20046;-70
2021/06/26 03:35:40;;;;;;;22.58;14.20;;;;;;;12.68;87.72;100692.66;20657563;28;20053;-69
2021/06/26 03:45:42;;;;;;;24.63;15.60;;;;;;;12.87;88.52;100696.63;20657669;28;20421;-70
2021/06/26 03:55:51;;;;;;;19.70;13.50;;;;;;;13.26;87.17;100701.97;20657291;28;20105;-70
2021/06/26 04:05:53;;;;;;;17.75;12.27;;;;;;;13.56;84.90;100705.72;20655552;28;20046;-70
2021/06/26 04:15:56;;;;;;;18.00;11.75;;;;;;;13.85;83.88;100710.28;20655872;28;20046;-69
2021/06/26 04:26:00;;;;;;;14.65;11.07;;;;;;;14.03;84.10;100712.44;20656434;28;20050;-71
2021/06/26 04:36:05;;;;;;;13.90;10.55;;;;;;;14.29;83.11;100711.78;20655076;28;20049;-70
2021/06/26 04:46:09;;;;;;;13.50;10.77;;;;;;;14.23;84.29;100708.44;20656056;28;20432;-70
2021/06/26 04:56:11;;;;;;;;;;;;;;;14.42;83.50;100720.25;20658189;28;20053;-70
2021/06/26 05:06:16;;;;;;;20.63;13.13;;;;;;;14.62;84.35;100706.56;20668713;28;19922;-70
2021/06/26 05:16:17;;;;;;;16.80;11.93;;;;;;;14.72;86.02;100707.19;20668317;28;20077;-70
2021/06/26 05:26:20;;;;;;;16.42;13.15;;;;;;;15.02;85.02;100713.34;20667681;28;20068;-70
2021/06/26 05:36:22;;;;;;;19.33;13.15;;;;;;;15.02;85.43;100730.03;20666396;28;20038;-70
2021/06/26 05:46:23;;;;;;;18.48;12.77;;;;;;;15.44;84.99;100724.41;20666380;28;20050;-70
2021/06/26 05:56:26;;;;;;;19.17;12.30;;;;;;;15.64;82.64;100719.38;20595228;28;20061;-70
2021/06/26 06:06:27;;;;;;;19.98;12.65;;;;;;;15.73;83.77;100714.72;20582280;28;20493;-70
2021/06/26 06:16:29;;;;;;;20.45;13.50;;;;;;;15.83;83.21;100721.44;20584276;28;20047;-70
2021/06/26 06:26:31;;;;;;;18.70;13.50;;;;;;;16.30;82.99;100722.50;20663324;28;20050;-70
2021/06/26 06:36:32;;;;;;;17.45;12.38;;;;;;;16.92;81.12;100732.69;20661852;28;20108;-69
2021/06/26 06:46:34;;;;;;;15.45;11.50;;;;;;;17.38;78.43;100738.00;20661140;28;20058;-70
2021/06/26 06:56:36;;;;;;;18.95;11.55;;;;;;;17.67;76.37;100735.09;20646180;28;20057;-70
2021/06/26 07:06:38;;;;;;;17.48;10.60;;;;;;;17.69;76.94;100740.34;20637273;28;20047;-69
2021/06/26 07:16:40;;;;;;;16.02;10.88;;;;;;;18.13;74.84;100735.06;20615268;28;20416;-70
2021/06/26 07:26:41;;;;;;;14.10;9.40;;;;;;;18.76;71.84;100740.34;20613777;28;20390;-70
2021/06/26 07:36:43;;;;;;;13.13;8.70;;;;;;;19.34;70.12;100727.06;20612207;28;20039;-70
2021/06/26 07:46:45;;;;;;;10.90;8.25;;;;;;;19.64;66.85;100719.47;20658638;28;20497;-69
2021/06/26 07:56:47;;;;;;;14.13;8.65;;;;;;;19.89;66.31;100714.69;20658182;28;20047;-69
2021/06/26 08:06:49;;;;;;;11.32;8.30;;;;;;;19.77;66.70;100709.97;20658108;28;20046;-69
2021/06/26 08:16:51;;;;;;;12.40;8.95;;;;;;;19.97;64.65;100695.69;20658418;28;20054;-69
2021/06/26 08:26:53;;;;;;;10.93;7.95;;;;;;;20.48;63.82;100686.03;20657882;28;20053;-69
2021/06/26 08:36:55;;;;;;;12.43;8.98;;;;;;;20.57;59.63;100693.53;20668973;28;20475;-69
2021/06/26 08:46:57;;;;;;;10.98;8.18;;;;;;;20.48;62.26;100680.72;20672037;28;20070;-70
2021/06/26 08:56:59;;;;;;;12.38;8.75;;;;;;;20.33;62.25;100676.16;20671183;28;20390;-70
2021/06/26 09:07:02;;;;;;;14.65;9.65;;;;;;;20.56;62.08;100675.88;20670272;28;20460;-69
2021/06/26 09:17:05;;;;;;;14.07;10.18;;;;;;;20.56;62.51;100675.88;20669977;28;20531;-69
2021/06/26 09:27:07;;;;;;;13.32;8.77;;;;;;;21.14;59.42;100667.38;20668519;28;20416;-69
2021/06/26 09:37:31;;;;;;;16.63;7.95;;;;;;;22.05;58.03;100654.25;20667268;28;20050;-69
2021/06/26 09:47:43;;;;;;;12.25;7.78;;;;;;;22.82;54.38;100653.13;20666378;28;20105;-69
2021/06/26 09:57:47;;;;;;;12.55;7.68;;;;;;;22.25;53.24;100653.94;20585756;28;20047;-69
2021/06/26 10:07:51;;;;;;;12.60;7.20;;;;;;;22.91;48.86;100644.56;20585425;28;20081;-69
2021/06/26 10:17:53;;;;;;;9.00;5.97;;;;;;;22.70;49.93;100649.38;20596557;28;20416;-70
2021/06/26 10:28:17;;;;;;;8.70;6.88;;;;;;;23.18;51.03;100629.44;20667003;28;20046;-70
2021/06/26 10:38:20;;;;;;;9.77;5.47;;;;;;;23.56;47.18;100623.41;20663467;28;20046;-70
2021/06/26 10:48:24;;;;;;;9.07;5.95;;;;;;;23.11;50.05;100609.44;20661654;28;20117;-69
2021/06/26 10:58:29;;;;;;;8.52;5.43;;;;;;;23.41;48.93;100603.03;20660797;28;20046;-70
2021/06/26 11:08:31;;;;;;;10.35;5.90;;;;;;;23.15;51.03;100594.91;20660224;28;20042;-69
2021/06/26 11:18:33;;;;;;;7.85;5.88;;;;;;;23.07;48.46;100589.22;20659099;28;20508;-69
2021/06/26 11:28:42;;;;;;;17.92;9.35;;;;;;;23.41;49.70;100582.50;20659777;28;20050;-69
2021/06/26 11:38:44;;;;;;;6.10;4.72;;;;;;;23.46;46.96;100567.03;20659458;28;20038;-69
2021/06/26 11:48:51;;;;;;;7.10;5.00;;;;;;;23.91;48.12;100569.41;20659013;28;20057;-70
2021/06/26 11:58:53;;;;;;;6.70;4.95;;;;;;;23.47;47.96;100555.38;20659462;28;20105;-70
2021/06/26 12:08:57;;;;;;;11.75;5.82;;;;;;;23.76;47.39;100556.13;20667139;28;20125;-70
2021/06/26 12:19:08;;;;;;;7.10;4.67;;;;;;;24.05;47.90;100548.78;20674423;28;20046;-71
2021/06/26 12:29:20;;;;;;;7.13;5.45;;;;;;;24.03;47.58;100541.81;20673355;28;20046;-71
2021/06/26 12:39:34;;;;;;;9.07;5.30;;;;;;;24.49;46.30;100536.78;20672321;28;20559;-71
2021/06/26 12:49:37;;;;;;;6.63;4.68;;;;;;;24.56;43.91;100523.81;20672818;28;20046;-71
2021/06/26 12:59:39;;;;;;;9.10;4.43;;;;;;;24.64;45.08;100526.78;20670885;28;20050;-71
2021/06/26 13:09:49;;;;;;;6.10;4.25;;;;;;;24.79;44.58;100525.66;20670962;28;20542;-69
2021/06/26 13:19:54;;;;;;;6.97;4.00;;;;;;;24.69;44.50;100527.31;20669501;28;20104;-71
2021/06/26 13:30:09;;;;;;;9.23;4.43;;;;;;;24.98;43.74;100508.25;20668357;28;20042;-72
2021/06/26 13:40:10;;;;;;;6.33;4.03;;;;;;;25.23;41.75;100497.44;20668296;28;20660;-71
2021/06/26 13:50:31;;;;;;;6.55;4.32;;;;;;;25.26;42.63;100501.72;20664852;28;20394;-69
2021/06/26 14:00:35;;;;;;;6.78;4.20;;;;;;;25.52;41.60;100480.94;20663642;28;20050;-68
2021/06/26 14:10:38;;;;;;;6.57;4.35;;;;;;;24.94;42.44;100469.25;20664999;28;20046;-68
2021/06/26 14:20:40;;;;;;;6.93;3.87;;;;;;;25.17;41.48;100452.34;20655155;28;20571;-68
2021/06/26 14:30:42;;;;;;;6.95;4.40;;;;;;;24.99;43.41;100451.88;20661064;28;20046;-69
2021/06/26 14:40:44;;;;;;;7.85;4.40;;;;;;;25.16;41.24;100439.94;20662123;28;20054;-69
2021/06/26 14:50:46;;;;;;;5.75;3.92;;;;;;;25.60;42.32;100435.66;20661428;28;20046;-69
2021/06/26 15:00:47;;;;;;;7.63;4.43;;;;;;;25.38;42.11;100430.22;20660548;28;20046;-69
2021/06/26 15:10:49;;;;;;;6.68;4.60;;;;;;;25.20;42.32;100425.31;20660672;28;20101;-69
2021/06/26 15:20:51;;;;;;;7.25;4.45;;;;;;;24.90;42.88;100422.25;20659336;28;20053;-69
2021/06/26 15:30:53;;;;;;;6.97;4.03;;;;;;;25.77;42.20;100426.28;20658707;28;20089;-69
2021/06/26 15:40:56;;;;;;;6.03;4.07;;;;;;;25.55;43.60;100411.03;20658372;28;20096;-69
2021/06/26 15:50:59;;;;;;;6.33;4.00;;;;;;;25.95;40.55;100407.88;20648108;28;20046;-67
2021/06/26 16:01:02;;;;;;;5.07;3.90;;;;;;;26.31;41.42;100399.56;20655626;28;20042;-67
2021/06/26 16:11:04;;;;;;;8.27;4.03;;;;;;;26.73;39.93;100386.28;20656328;28;20416;-69
2021/06/26 16:21:07;;;;;;;6.28;3.97;;;;;;;25.90;40.60;100378.75;20655140;28;20496;-69
2021/06/26 16:31:09;;;;;;;7.33;4.50;;;;;;;26.08;42.32;100365.69;20625334;28;20054;-70
2021/06/26 16:41:12;;;;;;;7.32;4.38;;;;;;;25.76;42.40;100350.34;20656496;28;20385;-69
2021/06/26 16:51:13;;;;;;;6.53;4.10;;;;;;;25.39;42.57;100346.16;20658248;28;20096;-70
2021/06/26 17:01:15;;;;;;;5.88;4.22;;;;;;;25.16;44.13;100335.41;20670752;28;20050;-70
2021/06/26 17:11:17;;;;;;;5.78;4.07;;;;;;;25.15;44.75;100343.56;20657585;28;20121;-71
2021/06/26 17:21:19;;;;;;;7.55;4.72;;;;;;;25.27;44.59;100335.44;20667607;28;20465;-71
2021/06/26 17:31:22;;;;;;;6.03;4.60;;;;;;;25.37;44.75;100332.03;20666302;28;20351;-71
2021/06/26 17:41:24;;;;;;;6.60;5.07;;;;;;;24.82;47.12;100337.13;20666515;28;20416;-70
2021/06/26 17:51:26;;;;;;;7.63;4.55;;;;;;;24.53;48.02;100337.50;20666007;28;20496;-70
2021/06/26 18:01:28;;;;;;;6.22;4.32;;;;;;;24.49;49.63;100343.22;20631887;28;20051;-71
2021/06/26 18:11:29;;;;;;;8.88;4.75;;;;;;;24.37;48.95;100341.44;20591933;28;20082;-70
2021/06/26 18:21:31;;;;;;;8.38;4.75;;;;;;;24.18;48.57;100345.41;20663304;28;20050;-70
2021/06/26 18:31:33;;;;;;;6.47;4.65;;;;;;;23.99;49.28;100347.72;20662389;28;20054;-71
2021/06/26 18:41:35;;;;;;;6.82;4.63;;;;;;;23.63;50.63;100351.22;20661599;28;20073;-70
2021/06/26 18:51:37;;;;;;;9.98;5.10;;;;;;;23.39;52.38;100353.78;20661111;28;20125;-71
2021/06/26 19:01:39;;;;;;;8.52;5.22;;;;;;;23.07;54.12;100354.19;20659981;28;20424;-70
2021/06/26 19:11:40;;;;;;;8.35;5.68;;;;;;;22.86;55.53;100366.31;20660165;28;20125;-70
2021/06/26 19:21:42;;;;;;;7.40;5.38;;;;;;;22.54;59.21;100372.81;20657799;28;20066;-70
2021/06/26 19:31:44;;;;;;;9.65;6.50;;;;;;;22.25;59.15;100371.19;20658064;28;20042;-71
2021/06/26 19:41:46;;;;;;;7.88;6.13;;;;;;;22.02;59.79;100375.31;20657272;28;20050;-71
2021/06/26 19:51:49;;;;;;;11.02;8.57;;;;;;;22.00;58.79;100391.41;20657795;28;20050;-71
2021/06/26 20:01:50;;;;;;;9.73;6.47;;;;;;;21.79;61.20;100403.41;20656813;28;20057;-71
2021/06/26 20:11:52;;;;;;;9.93;6.72;;;;;;;21.49;62.97;100416.81;20656514;28;20104;-71
2021/06/26 20:21:54;;;;;;;10.77;6.55;;;;;;;21.36;64.37;100418.50;20655180;28;20050;-71
2021/06/26 20:31:56;;;;;;;13.63;8.15;;;;;;;21.12;65.66;100426.97;20666953;28;20556;-70
2021/06/26 20:41:58;;;;;;;11.75;7.57;;;;;;;20.73;67.99;100430.16;20671912;28;20057;-71
2021/06/26 20:52:00;;;;;;;10.63;7.45;;;;;;;20.43;68.85;100433.56;20670788;28;20047;-71
2021/06/26 21:02:02;;;;;;;11.98;7.75;;;;;;;20.37;69.59;100443.72;20669753;28;20089;-70
2021/06/26 21:12:05;;;;;;;11.32;7.80;;;;;;;20.21;70.76;100433.03;20670537;28;20206;-71
2021/06/26 21:22:06;;;;;;;14.15;8.02;;;;;;;20.04;71.60;100426.00;20669184;28;20046;-71
2021/06/26 21:32:08;;;;;;;12.20;8.55;;;;;;;19.99;70.78;100428.91;20667042;28;20058;-72
2021/06/26 21:42:10;;;;;;;11.65;8.68;;;;;;;19.94;69.91;100424.78;20666286;28;20508;-71
2021/06/26 21:52:12;;;;;;;12.15;8.45;;;;;;;20.18;69.70;100428.75;20665960;28;20097;-72
2021/06/26 22:02:13;;;;;;;13.57;9.40;;;;;;;20.04;70.24;100431.31;20665398;28;20058;-71
2021/06/26 22:12:15;;;;;;;12.73;8.77;;;;;;;19.94;70.64;100419.47;20640313;28;20050;-71
2021/06/26 22:22:17;;;;;;;11.80;9.00;;;;;;;19.86;71.75;100411.06;20662761;28;20104;-71
2021/06/26 22:32:18;;;;;;;11.50;8.88;;;;;;;19.84;70.48;100402.31;20661679;28;20053;-72
2021/06/26 22:42:25;;;;;;;11.00;8.38;;;;;;;19.81;70.27;100391.84;20661691;28;20412;-71
2021/06/26 22:52:27;;;;;;;10.52;8.48;;;;;;;19.63;70.66;100383.91;20660189;28;20054;-71
2021/06/26 23:02:28;;;;;;;12.43;9.05;;;;;;;19.33;72.83;100386.38;20659294;28;20649;-71
2021/06/26 23:12:30;;;;;;;13.05;9.13;;;;;;;19.00;73.77;100385.44;20659586;28;20100;-72
2021/06/26 23:22:33;;;;;;;14.65;9.18;;;;;;;18.80;74.75;100391.75;20658699;28;20050;-72
2021/06/26 23:32:42;;;;;;;13.18;9.57;;;;;;;18.77;74.25;100381.28;20657509;28;20042;-72
2021/06/26 23:42:45;;;;;;;14.65;10.15;;;;;;;18.64;74.53;100386.34;20657147;28;20047;-71
2021/06/26 23:52:49;;;;;;;12.75;9.65;;;;;;;18.43;76.24;100393.53;20656127;28;20046;-71
